Ozark, Arkansas
Current Conditions -  °F | °C
As of 1:53 AM on Friday 19 Dec 2014 (Local Time) from KFSM Reporting Station
Overcast Overcast  
Wind Chill: 41°   Ceiling: 700
Heat Index: 41°   Visibility: 7mi
Dew Point: 38°   Wind: 3mph
Humidity: 89%   Direction: 110°ESE
Pressure: 30.21"   Gusts: NA
Location:  35.49°N, 93.83°W
Report Text: KFSM 190753Z AUTO 11003KT 7SM OVC007 05/03 A3021 RMK AO2 SLP231 T00500033
Loading
Personal Weather Stations






























Interactive Weather Map New forecast layout! Learn more

10-Day Weather Forecast

Advertisements
Track Severe Weather on mobile